createdAt,value
2023-03-16T00:02:22.327Z,99460.16
2023-03-16T00:05:13.379Z,99459.19
2023-03-16T00:08:02.740Z,99459.97
2023-03-16T00:10:54.424Z,99454.50
2023-03-16T00:13:43.955Z,99449.78
2023-03-16T00:16:33.169Z,99436.44
2023-03-16T00:19:23.581Z,99436.59
2023-03-16T00:22:14.873Z,99448.31
2023-03-16T00:25:04.657Z,99452.28
2023-03-16T00:27:55.227Z,99449.00
2023-03-16T00:30:47.487Z,99451.75
2023-03-16T00:33:37.739Z,99437.94
2023-03-16T00:36:27.727Z,99441.19
2023-03-16T00:39:16.951Z,99432.97
2023-03-16T00:42:06.508Z,99431.84
2023-03-16T00:44:58.328Z,99424.22
2023-03-16T00:47:47.551Z,99416.34
2023-03-16T00:50:36.749Z,99409.00
2023-03-16T00:53:26.447Z,99419.00
2023-03-16T00:56:16.575Z,99399.56
2023-03-16T00:59:06.070Z,99408.81
2023-03-16T01:01:57.409Z,99402.00
2023-03-16T01:04:46.959Z,99390.34
2023-03-16T01:07:37.112Z,99388.47
2023-03-16T01:10:26.529Z,99392.72
2023-03-16T01:13:16.547Z,99405.72
2023-03-16T01:16:06.843Z,99401.38
2023-03-16T01:18:57.767Z,99394.94
2023-03-16T01:21:47.045Z,99397.59
2023-03-16T01:24:38.309Z,99390.72
2023-03-16T01:27:28.754Z,99394.16
2023-03-16T01:30:18.043Z,99387.31
2023-03-16T01:33:07.521Z,99377.44
2023-03-16T01:36:00.693Z,99382.81
2023-03-16T01:38:55.200Z,99378.66
2023-03-16T01:41:48.803Z,99377.44
2023-03-16T01:45:01.749Z,99360.97
2023-03-16T01:47:58.855Z,99363.19
2023-03-16T01:50:48.420Z,99361.84
2023-03-16T01:53:42.213Z,99358.41
2023-03-16T01:56:37.556Z,99340.25
2023-03-16T01:59:33.164Z,99340.69
2023-03-16T02:02:27.091Z,99356.03
2023-03-16T02:05:23.172Z,99347.00
2023-03-16T02:08:13.283Z,99355.75
2023-03-16T02:11:04.939Z,99338.50
2023-03-16T02:14:12.548Z,99332.13
2023-03-16T02:17:03.645Z,99344.94
2023-03-16T02:20:08.988Z,99352.56
2023-03-16T02:23:00.219Z,99330.06
2023-03-16T02:25:59.542Z,99339.44
2023-03-16T02:29:07.736Z,99320.34
2023-03-16T02:32:00.178Z,99325.00
2023-03-16T02:34:49.495Z,99315.19
2023-03-16T02:37:38.945Z,99310.59
2023-03-16T02:40:31.380Z,99303.19
2023-03-16T02:43:29.994Z,99310.59
2023-03-16T02:46:36.001Z,99297.56
2023-03-16T02:49:32.310Z,99302.28
2023-03-16T02:52:21.678Z,99292.03
2023-03-16T02:55:12.107Z,99305.00
2023-03-16T02:58:01.617Z,99299.31
2023-03-16T03:00:50.939Z,99307.28
2023-03-16T03:03:40.568Z,99308.28
2023-03-16T03:06:32.418Z,99304.38
2023-03-16T03:09:22.438Z,99263.56
2023-03-16T03:12:15.536Z,99283.53
2023-03-16T03:15:05.382Z,99288.66
2023-03-16T03:18:02.549Z,99285.53
2023-03-16T03:20:53.107Z,99276.50
2023-03-16T03:23:46.553Z,99268.56
2023-03-16T03:26:35.776Z,99264.09
2023-03-16T03:29:34.446Z,99263.22
2023-03-16T03:32:23.911Z,99261.78
2023-03-16T03:35:15.375Z,99254.72
2023-03-16T03:38:05.131Z,99253.84
2023-03-16T03:40:59.615Z,99241.28
2023-03-16T03:43:52.388Z,99250.81
2023-03-16T03:46:41.724Z,99245.47
2023-03-16T03:49:31.465Z,99237.22
2023-03-16T03:52:20.972Z,99259.31
2023-03-16T03:55:12.100Z,99274.94
2023-03-16T03:58:02.825Z,99274.19
2023-03-16T04:00:53.104Z,99239.31
2023-03-16T04:03:44.814Z,99237.22
2023-03-16T04:06:36.387Z,99213.13
2023-03-16T04:09:25.709Z,99221.13
2023-03-16T04:12:15.202Z,99216.44
2023-03-16T04:15:08.401Z,99225.50
2023-03-16T04:18:07.362Z,99210.78
2023-03-16T04:20:56.908Z,99219.38
2023-03-16T04:23:48.167Z,99220.97
2023-03-16T04:26:37.949Z,99212.81
2023-03-16T04:29:28.263Z,99203.69
2023-03-16T04:32:21.244Z,99203.00
2023-03-16T04:35:11.640Z,99211.13
2023-03-16T04:38:10.791Z,99221.75
2023-03-16T04:41:08.475Z,99210.84
2023-03-16T04:44:02.286Z,99203.97
2023-03-16T04:46:51.572Z,99191.31
2023-03-16T04:49:43.751Z,99199.56
2023-03-16T04:52:33.321Z,99205.25
2023-03-16T04:55:24.449Z,99203.91
2023-03-16T04:58:14.937Z,99205.97
2023-03-16T05:01:04.309Z,99191.81
2023-03-16T05:03:54.151Z,99193.41
2023-03-16T05:06:44.883Z,99211.09
2023-03-16T05:09:35.461Z,99197.72
2023-03-16T05:12:25.227Z,99202.41
2023-03-16T05:15:20.547Z,99220.69
2023-03-16T05:18:20.311Z,99225.72
2023-03-16T05:21:09.675Z,99213.59
2023-03-16T05:24:23.891Z,99191.44
2023-03-16T05:27:13.580Z,99202.63
2023-03-16T05:30:02.929Z,99205.00
2023-03-16T05:32:57.001Z,99197.47
2023-03-16T05:35:47.050Z,99189.31
2023-03-16T05:38:37.255Z,99195.59
2023-03-16T05:41:29.335Z,99203.41
2023-03-16T05:44:41.752Z,99186.06
2023-03-16T05:47:39.386Z,99185.72
2023-03-16T05:50:30.628Z,99178.22
2023-03-16T05:53:20.792Z,99170.72
2023-03-16T05:56:10.374Z,99188.03
2023-03-16T05:59:05.549Z,99183.16
2023-03-16T06:01:55.676Z,99189.16
2023-03-16T06:04:45.252Z,99180.34
2023-03-16T06:07:34.826Z,99182.25
2023-03-16T06:10:24.494Z,99164.06
2023-03-16T06:13:13.710Z,99173.59
2023-03-16T06:16:06.389Z,99157.03
2023-03-16T06:18:59.753Z,99147.78
2023-03-16T06:21:50.840Z,99135.63
2023-03-16T06:24:41.395Z,99138.38
2023-03-16T06:27:30.763Z,99130.88
2023-03-16T06:30:29.891Z,99127.84
2023-03-16T06:33:20.692Z,99124.34
2023-03-16T06:36:11.979Z,99122.03
2023-03-16T06:39:05.777Z,99136.91
2023-03-16T06:42:04.598Z,99143.88
2023-03-16T06:44:54.539Z,99163.06
2023-03-16T06:47:44.687Z,99159.13
2023-03-16T06:50:35.633Z,99169.44
2023-03-16T06:53:24.993Z,99169.97
2023-03-16T06:56:15.819Z,99163.69
2023-03-16T06:59:07.748Z,99162.13
2023-03-16T07:01:59.266Z,99159.06
2023-03-16T07:04:48.798Z,99155.47
2023-03-16T07:07:40.971Z,99150.47
2023-03-16T07:10:30.585Z,99150.03
2023-03-16T07:13:20.438Z,99141.75
2023-03-16T07:16:10.168Z,99133.22
2023-03-16T07:18:59.859Z,99133.81
2023-03-16T07:21:49.104Z,99140.16
2023-03-16T07:24:44.331Z,99131.56
2023-03-16T07:27:34.503Z,99125.66
2023-03-16T07:30:28.122Z,99118.88
2023-03-16T07:33:17.453Z,99133.47
2023-03-16T07:36:09.423Z,99133.47
2023-03-16T07:39:03.096Z,99143.94
2023-03-16T07:41:55.597Z,99127.84
2023-03-16T07:45:06.710Z,99138.88
2023-03-16T07:48:01.189Z,99128.81
2023-03-16T07:51:04.820Z,99136.31
2023-03-16T07:53:54.452Z,99136.44
2023-03-16T07:56:55.705Z,99146.72
2023-03-16T08:00:20.635Z,99129.31
2023-03-16T08:03:11.586Z,99141.00
2023-03-16T08:06:01.482Z,99137.16
2023-03-16T08:08:51.375Z,99153.50
2023-03-16T08:11:49.125Z,99172.34
2023-03-16T08:14:40.177Z,99153.63
2023-03-16T08:17:37.864Z,99153.63
2023-03-16T08:20:32.322Z,99158.13
2023-03-16T08:23:22.478Z,99148.28
2023-03-16T08:26:11.752Z,99165.03
2023-03-16T08:29:03.533Z,99165.31
2023-03-16T08:31:57.674Z,99177.44
2023-03-16T08:34:57.268Z,99163.97
2023-03-16T08:37:47.994Z,99174.34
2023-03-16T08:40:38.749Z,99167.44
2023-03-16T08:43:28.996Z,99140.97
2023-03-16T08:46:19.566Z,99151.78
2023-03-16T08:49:14.911Z,99152.97
2023-03-16T08:52:10.319Z,99163.16
2023-03-16T08:55:03.381Z,99151.91
2023-03-16T08:57:53.158Z,99153.09
2023-03-16T09:00:45.466Z,99137.09
2023-03-16T09:03:36.375Z,99139.69
2023-03-16T09:06:26.379Z,99132.63
2023-03-16T09:09:17.883Z,99135.56
2023-03-16T09:12:08.634Z,99120.16
2023-03-16T09:14:57.830Z,99135.16
2023-03-16T09:17:47.479Z,99129.97
2023-03-16T09:20:38.083Z,99146.38
2023-03-16T09:23:27.803Z,99150.59
2023-03-16T09:26:18.945Z,99152.41
2023-03-16T09:29:08.393Z,99157.56
2023-03-16T09:31:57.728Z,99137.72
2023-03-16T09:34:47.064Z,99147.84
2023-03-16T09:37:44.880Z,99153.50
2023-03-16T09:40:36.413Z,99160.97
2023-03-16T09:43:58.074Z,99163.38
2023-03-16T09:46:50.881Z,99166.59
2023-03-16T09:49:46.727Z,99155.91
2023-03-16T09:52:45.616Z,99163.84
2023-03-16T09:55:37.752Z,99159.53
2023-03-16T09:58:28.481Z,99157.75
2023-03-16T10:01:27.846Z,99145.19
2023-03-16T10:04:37.723Z,99153.53
2023-03-16T10:07:41.365Z,99173.78
2023-03-16T10:10:51.754Z,99157.88
2023-03-16T10:13:49.712Z,99167.06
2023-03-16T10:16:45.290Z,99163.94
2023-03-16T10:19:42.184Z,99167.91
2023-03-16T10:22:34.973Z,99171.91
2023-03-16T10:25:28.815Z,99161.59
2023-03-16T10:28:21.959Z,99157.88
2023-03-16T10:31:14.143Z,99163.38
2023-03-16T10:34:07.556Z,99169.09
2023-03-16T10:36:57.046Z,99153.91
2023-03-16T10:39:46.947Z,99161.25
2023-03-16T10:42:38.292Z,99159.31
2023-03-16T10:45:32.477Z,99170.75
2023-03-16T10:48:23.328Z,99156.88
2023-03-16T10:51:16.717Z,99168.34
2023-03-16T10:54:16.009Z,99160.06
2023-03-16T10:57:21.275Z,99147.44
2023-03-16T11:00:20.426Z,99141.44
2023-03-16T11:03:26.151Z,99140.69
2023-03-16T11:06:24.739Z,99148.16
2023-03-16T11:09:20.949Z,99143.44
2023-03-16T11:12:24.424Z,99148.97
2023-03-16T11:15:25.259Z,99150.16
2023-03-16T11:18:31.462Z,99142.19
2023-03-16T11:21:41.505Z,99141.75
2023-03-16T11:24:44.353Z,99141.78
2023-03-16T11:27:42.019Z,99153.59
2023-03-16T11:30:39.194Z,99143.59
2023-03-16T11:33:31.180Z,99139.75
2023-03-16T11:36:39.378Z,99161.91
2023-03-16T11:39:46.261Z,99160.59
2023-03-16T11:42:42.002Z,99164.47
2023-03-16T11:45:40.203Z,99167.16
2023-03-16T11:48:38.718Z,99151.00
2023-03-16T11:51:46.017Z,99160.34
2023-03-16T11:54:52.880Z,99153.28
2023-03-16T11:57:58.586Z,99147.34
2023-03-16T12:00:56.207Z,99144.81
2023-03-16T12:04:12.379Z,99149.34
2023-03-16T12:07:20.468Z,99149.16
2023-03-16T12:10:26.633Z,99150.63
2023-03-16T12:13:33.246Z,99141.53
2023-03-16T12:16:35.892Z,99149.72
2023-03-16T12:19:43.689Z,99143.44
2023-03-16T12:22:36.469Z,99138.72
2023-03-16T12:25:38.311Z,99139.06
2023-03-16T12:28:31.572Z,99142.03
2023-03-16T12:31:27.356Z,99150.06
2023-03-16T12:34:26.933Z,99137.47
2023-03-16T12:37:34.972Z,99124.34
2023-03-16T12:40:34.788Z,99133.03
2023-03-16T12:43:46.550Z,99141.88
2023-03-16T12:46:49.163Z,99148.34
2023-03-16T12:49:39.548Z,99140.53
2023-03-16T12:52:42.227Z,99138.97
2023-03-16T12:55:44.547Z,99131.06
2023-03-16T12:58:34.547Z,99140.25
2023-03-16T13:01:30.467Z,99135.16
2023-03-16T13:04:23.551Z,99129.28
2023-03-16T13:07:20.473Z,99135.22
2023-03-16T13:10:15.774Z,99146.66
2023-03-16T13:13:15.289Z,99147.47
2023-03-16T13:16:09.541Z,99143.53
2023-03-16T13:18:59.462Z,99136.84
2023-03-16T13:21:48.712Z,99143.94
2023-03-16T13:24:41.221Z,99154.16
2023-03-16T13:27:35.332Z,99162.44
2023-03-16T13:30:31.535Z,99154.53
2023-03-16T13:33:26.407Z,99134.44
2023-03-16T13:36:17.659Z,99134.47
2023-03-16T13:39:16.460Z,99133.66
2023-03-16T13:42:18.757Z,99134.44
2023-03-16T13:45:16.956Z,99129.66
2023-03-16T13:48:06.264Z,99137.91
2023-03-16T13:50:58.722Z,99138.69
2023-03-16T13:53:49.433Z,99143.06
2023-03-16T13:56:40.326Z,99143.81
2023-03-16T13:59:29.858Z,99128.72
2023-03-16T14:02:23.309Z,99123.19
2023-03-16T14:05:18.747Z,99131.94
2023-03-16T14:08:18.402Z,99133.41
2023-03-16T14:11:07.929Z,99131.72
2023-03-16T14:13:58.924Z,99114.13
2023-03-16T14:16:49.011Z,99125.03
2023-03-16T14:19:45.877Z,99111.53
2023-03-16T14:22:39.121Z,99114.28
2023-03-16T14:25:29.393Z,99120.66
2023-03-16T14:28:22.459Z,99109.19
2023-03-16T14:31:12.733Z,99131.22
2023-03-16T14:34:04.944Z,99120.50
2023-03-16T14:37:05.924Z,99101.97
2023-03-16T14:40:06.085Z,99110.41
2023-03-16T14:42:58.832Z,99109.47
2023-03-16T14:45:48.329Z,99098.97
2023-03-16T14:48:39.348Z,99094.66
2023-03-16T14:51:30.084Z,99093.47
2023-03-16T14:54:23.492Z,99087.34
2023-03-16T14:57:19.132Z,99089.78
2023-03-16T15:00:12.174Z,99094.66
2023-03-16T15:03:06.491Z,99091.94
2023-03-16T15:05:56.029Z,99089.16
2023-03-16T15:08:50.164Z,99088.34
2023-03-16T15:11:43.358Z,99082.34
2023-03-16T15:14:49.885Z,99085.16
2023-03-16T15:17:39.182Z,99090.63
2023-03-16T15:20:34.882Z,99096.69
2023-03-16T15:23:24.231Z,99095.53
2023-03-16T15:26:15.539Z,99079.81
2023-03-16T15:29:12.078Z,99100.41
2023-03-16T15:32:01.446Z,99100.06
2023-03-16T15:34:50.995Z,99104.81
2023-03-16T15:37:40.594Z,99103.63
2023-03-16T15:40:31.508Z,99106.03
2023-03-16T15:43:24.653Z,99107.22
2023-03-16T15:46:16.733Z,99113.50
2023-03-16T15:49:06.597Z,99106.72
2023-03-16T15:51:55.900Z,99112.22
2023-03-16T15:54:45.110Z,99111.06
2023-03-16T15:57:35.282Z,99107.88
2023-03-16T16:00:31.962Z,99098.34
2023-03-16T16:03:22.998Z,99108.91
2023-03-16T16:06:13.095Z,99101.78
2023-03-16T16:09:02.295Z,99097.00
2023-03-16T16:11:51.801Z,99103.91
2023-03-16T16:14:42.010Z,99098.44
2023-03-16T16:17:47.942Z,99106.06
2023-03-16T16:20:43.274Z,99102.59
2023-03-16T16:23:33.595Z,99116.16
2023-03-16T16:26:41.544Z,99093.34
2023-03-16T16:29:36.552Z,99117.09
2023-03-16T16:32:26.056Z,99098.16
2023-03-16T16:35:16.073Z,99095.38
2023-03-16T16:38:07.148Z,99095.72
2023-03-16T16:40:58.848Z,99077.13
2023-03-16T16:43:49.357Z,99088.13
2023-03-16T16:46:42.504Z,99078.97
2023-03-16T16:49:32.447Z,99082.47
2023-03-16T16:52:21.726Z,99076.50
2023-03-16T16:55:12.594Z,99074.97
2023-03-16T16:58:04.616Z,99080.50
2023-03-16T17:00:58.970Z,99064.78
2023-03-16T17:03:48.162Z,99063.34
2023-03-16T17:06:37.364Z,99070.53
2023-03-16T17:09:28.196Z,99061.03
2023-03-16T17:12:22.771Z,99074.88
2023-03-16T17:15:26.783Z,99078.78
2023-03-16T17:18:16.263Z,99088.59
2023-03-16T17:21:10.529Z,99055.47
2023-03-16T17:24:00.455Z,99071.63
2023-03-16T17:26:54.066Z,99089.31
2023-03-16T17:29:44.709Z,99087.25
2023-03-16T17:32:34.071Z,99083.63
2023-03-16T17:35:24.100Z,99078.03
2023-03-16T17:38:20.395Z,99084.69
2023-03-16T17:41:23.077Z,99102.41
2023-03-16T17:44:15.621Z,99088.16
2023-03-16T17:47:15.290Z,99095.22
2023-03-16T17:50:16.050Z,99089.66
2023-03-16T17:53:08.390Z,99098.38
2023-03-16T17:55:57.817Z,99104.97
2023-03-16T17:58:49.261Z,99111.25
2023-03-16T18:01:39.212Z,99107.69
2023-03-16T18:04:29.900Z,99114.28
2023-03-16T18:07:19.777Z,99115.84
2023-03-16T18:10:15.145Z,99114.28
2023-03-16T18:13:09.832Z,99114.94
2023-03-16T18:15:59.513Z,99114.91
2023-03-16T18:18:49.035Z,99120.75
2023-03-16T18:21:39.690Z,99115.53
2023-03-16T18:24:28.868Z,99117.88
2023-03-16T18:27:20.587Z,99112.69
2023-03-16T18:30:12.699Z,99122.84
2023-03-16T18:33:03.574Z,99121.66
2023-03-16T18:35:55.180Z,99114.06
2023-03-16T18:38:48.537Z,99110.03
2023-03-16T18:41:38.354Z,99111.22
2023-03-16T18:44:28.402Z,99135.19
2023-03-16T18:47:21.242Z,99141.09
2023-03-16T18:50:23.542Z,99140.97
2023-03-16T18:53:17.597Z,99140.09
2023-03-16T18:56:08.802Z,99145.91
2023-03-16T18:58:58.688Z,99144.25
2023-03-16T19:01:49.364Z,99153.94
2023-03-16T19:04:38.924Z,99154.75
2023-03-16T19:07:35.239Z,99162.59
2023-03-16T19:10:28.333Z,99164.47
2023-03-16T19:13:21.591Z,99168.75
2023-03-16T19:16:18.760Z,99161.97
2023-03-16T19:19:08.519Z,99163.53
2023-03-16T19:22:02.418Z,99164.53
2023-03-16T19:24:54.698Z,99151.94
2023-03-16T19:27:44.626Z,99157.75
2023-03-16T19:30:37.088Z,99162.41
2023-03-16T19:33:29.171Z,99165.59
2023-03-16T19:36:22.674Z,99169.91
2023-03-16T19:39:14.835Z,99155.56
2023-03-16T19:42:04.156Z,99166.56
2023-03-16T19:44:53.472Z,99159.13
2023-03-16T19:47:44.537Z,99161.38
2023-03-16T19:50:33.809Z,99154.47
2023-03-16T19:53:24.656Z,99153.28
2023-03-16T19:56:17.120Z,99165.88
2023-03-16T19:59:08.227Z,99149.72
2023-03-16T20:01:57.575Z,99163.50
2023-03-16T20:04:48.193Z,99155.38
2023-03-16T20:07:38.285Z,99160.41
2023-03-16T20:10:31.003Z,99162.03
2023-03-16T20:13:20.638Z,99160.41
2023-03-16T20:16:18.857Z,99160.56
2023-03-16T20:19:15.542Z,99159.38
2023-03-16T20:22:13.638Z,99163.16
2023-03-16T20:25:05.326Z,99167.53
2023-03-16T20:27:58.118Z,99158.03
2023-03-16T20:30:48.577Z,99171.69
2023-03-16T20:33:37.984Z,99166.97
2023-03-16T20:36:28.270Z,99161.75
2023-03-16T20:39:18.949Z,99158.03
2023-03-16T20:42:17.049Z,99153.59
2023-03-16T20:45:21.961Z,99154.44
2023-03-16T20:48:16.802Z,99172.84
2023-03-16T20:51:08.419Z,99164.25
2023-03-16T20:53:57.711Z,99164.19
2023-03-16T20:56:49.352Z,99163.03
2023-03-16T20:59:39.276Z,99166.06
2023-03-16T21:02:32.079Z,99170.63
2023-03-16T21:05:22.106Z,99170.97
2023-03-16T21:08:11.487Z,99176.13
2023-03-16T21:11:01.432Z,99181.44
2023-03-16T21:13:53.584Z,99180.81
2023-03-16T21:16:42.932Z,99175.28
2023-03-16T21:19:32.508Z,99187.09
2023-03-16T21:22:27.540Z,99201.13
2023-03-16T21:25:21.925Z,99203.88
2023-03-16T21:28:13.656Z,99204.16
2023-03-16T21:31:06.718Z,99200.13
2023-03-16T21:33:57.464Z,99209.16
2023-03-16T21:36:46.888Z,99211.97
2023-03-16T21:39:36.177Z,99215.44
2023-03-16T21:42:25.544Z,99225.28
2023-03-16T21:45:16.055Z,99224.13
2023-03-16T21:48:07.516Z,99222.88
2023-03-16T21:50:56.728Z,99217.84
2023-03-16T21:53:47.122Z,99219.97
2023-03-16T21:56:36.295Z,99218.97
2023-03-16T21:59:25.561Z,99213.06
2023-03-16T22:02:23.243Z,99211.31
2023-03-16T22:05:41.621Z,99216.09
2023-03-16T22:08:34.416Z,99214.44
2023-03-16T22:11:27.846Z,99215.09
2023-03-16T22:14:17.060Z,99209.06
2023-03-16T22:17:07.619Z,99205.09
2023-03-16T22:19:56.908Z,99217.28
2023-03-16T22:22:48.458Z,99212.63
2023-03-16T22:25:37.824Z,99209.00
2023-03-16T22:28:27.947Z,99210.66
2023-03-16T22:31:20.700Z,99209.00
2023-03-16T22:34:21.338Z,99217.66
2023-03-16T22:37:13.368Z,99218.53
2023-03-16T22:40:04.783Z,99218.53
2023-03-16T22:42:55.285Z,99209.06
2023-03-16T22:45:44.807Z,99212.53
2023-03-16T22:48:34.113Z,99223.88
2023-03-16T22:51:28.102Z,99204.31
2023-03-16T22:54:22.320Z,99206.69
2023-03-16T22:57:15.521Z,99205.91
2023-03-16T23:00:07.971Z,99212.97
2023-03-16T23:02:57.827Z,99219.19
2023-03-16T23:05:48.045Z,99211.38
2023-03-16T23:08:38.012Z,99220.47
2023-03-16T23:11:29.314Z,99209.78
2023-03-16T23:14:22.971Z,99200.25
2023-03-16T23:17:18.891Z,99226.97
2023-03-16T23:20:20.941Z,99220.69
2023-03-16T23:23:10.323Z,99215.50
2023-03-16T23:25:59.525Z,99226.31
2023-03-16T23:28:49.753Z,99222.56
2023-03-16T23:31:41.024Z,99228.03
2023-03-16T23:34:30.342Z,99226.47
2023-03-16T23:37:19.582Z,99232.56
2023-03-16T23:40:10.698Z,99238.69
2023-03-16T23:43:02.156Z,99240.22
2023-03-16T23:45:51.508Z,99225.81
2023-03-16T23:48:45.420Z,99231.13
2023-03-16T23:51:38.619Z,99236.53
2023-03-16T23:54:30.591Z,99243.44
2023-03-16T23:57:19.861Z,99241.06
